createdAt,value
2022-08-28T00:03:07.166Z,19.49
2022-08-28T00:08:12.643Z,19.29
2022-08-28T00:13:19.209Z,20.34
2022-08-28T00:18:23.225Z,19.64
2022-08-28T00:23:42.513Z,19.48
2022-08-28T00:28:46.504Z,20.68
2022-08-28T00:33:49.510Z,20.76
2022-08-28T00:38:52.519Z,19.50
2022-08-28T00:44:10.064Z,19.08
2022-08-28T00:49:15.324Z,20.34
2022-08-28T00:54:19.506Z,19.69
2022-08-28T00:59:25.842Z,18.64
2022-08-28T01:04:32.536Z,18.64
2022-08-28T01:09:41.896Z,20.05
2022-08-28T01:14:46.445Z,20.89
2022-08-28T01:20:03.274Z,20.79
2022-08-28T01:25:11.455Z,19.33
2022-08-28T01:30:17.980Z,19.94
2022-08-28T01:35:26.107Z,20.71
2022-08-28T01:40:41.912Z,21.04
2022-08-28T01:45:48.606Z,21.23
2022-08-28T01:50:52.508Z,21.21
2022-08-28T01:55:57.284Z,20.03
2022-08-28T02:01:00.390Z,18.44
2022-08-28T02:06:03.395Z,18.33
2022-08-28T02:11:09.010Z,19.89
2022-08-28T02:16:12.113Z,20.44
2022-08-28T02:21:15.487Z,20.03
2022-08-28T02:26:19.518Z,18.58
2022-08-28T02:31:22.586Z,19.01
2022-08-28T02:36:25.942Z,19.91
2022-08-28T02:41:28.950Z,20.32
2022-08-28T02:46:32.708Z,19.58
2022-08-28T02:51:35.678Z,18.67
2022-08-28T02:56:38.583Z,19.46
2022-08-28T03:01:41.673Z,19.91
2022-08-28T03:06:44.800Z,19.41
2022-08-28T03:11:47.746Z,18.52
2022-08-28T03:16:50.844Z,19.21
2022-08-28T03:21:56.759Z,19.61
2022-08-28T03:27:01.944Z,19.76
2022-08-28T03:32:05.466Z,18.91
2022-08-28T03:37:09.699Z,18.54
2022-08-28T03:42:12.948Z,19.37
2022-08-28T03:47:17.146Z,19.89
2022-08-28T03:52:20.560Z,20.11
2022-08-28T03:57:24.259Z,18.98
2022-08-28T04:02:27.291Z,18.67
2022-08-28T04:07:30.297Z,19.52
2022-08-28T04:12:35.437Z,20.17
2022-08-28T04:17:41.254Z,20.59
2022-08-28T04:22:44.274Z,20.32
2022-08-28T04:27:49.799Z,20.71
2022-08-28T04:32:52.805Z,21.21
2022-08-28T04:37:59.115Z,21.79
2022-08-28T04:43:02.095Z,22.52
2022-08-28T04:48:05.587Z,23.48
2022-08-28T04:53:20.299Z,24.48
2022-08-28T04:58:24.080Z,25.39
2022-08-28T05:03:27.440Z,26.20
2022-08-28T05:08:31.504Z,26.88
2022-08-28T05:13:34.675Z,27.75
2022-08-28T05:18:37.680Z,28.70
2022-08-28T05:23:40.798Z,29.68
2022-08-28T05:28:44.001Z,30.19
2022-08-28T05:33:49.159Z,30.71
2022-08-28T05:38:56.977Z,31.59
2022-08-28T05:44:03.990Z,32.35
2022-08-28T05:49:10.075Z,33.08
2022-08-28T05:54:15.032Z,33.65
2022-08-28T05:59:18.255Z,33.54
2022-08-28T06:04:26.185Z,33.20
2022-08-28T06:09:32.232Z,33.28
2022-08-28T06:14:35.330Z,33.70
2022-08-28T06:19:41.489Z,34.24
2022-08-28T06:24:44.826Z,34.31
2022-08-28T06:29:47.933Z,34.43
2022-08-28T06:34:54.455Z,34.69
2022-08-28T06:39:57.672Z,35.14
2022-08-28T06:45:00.849Z,35.25
2022-08-28T06:50:05.003Z,35.75
2022-08-28T06:55:08.789Z,36.48
2022-08-28T07:00:13.944Z,37.31
2022-08-28T07:05:17.378Z,37.79
2022-08-28T07:10:20.316Z,38.77
2022-08-28T07:15:23.572Z,39.40
2022-08-28T07:20:26.598Z,39.54
2022-08-28T07:25:30.017Z,39.48
2022-08-28T07:30:33.025Z,39.43
2022-08-28T07:35:36.333Z,39.50
2022-08-28T07:40:39.310Z,39.12
2022-08-28T07:45:43.309Z,39.30
2022-08-28T07:50:46.378Z,39.35
2022-08-28T07:55:51.386Z,39.64
2022-08-28T08:00:54.440Z,39.69
2022-08-28T08:06:03.282Z,39.63
2022-08-28T08:11:13.882Z,39.95
2022-08-28T08:16:22.985Z,40.38
2022-08-28T08:21:30.274Z,40.65
2022-08-28T08:26:34.285Z,40.50
2022-08-28T08:31:37.289Z,39.73
2022-08-28T08:36:43.969Z,39.26
2022-08-28T08:41:51.543Z,38.95
2022-08-28T08:47:14.557Z,37.41
2022-08-28T08:52:26.491Z,34.89
2022-08-28T08:57:32.125Z,33.19
2022-08-28T09:02:40.967Z,31.94
2022-08-28T09:07:56.913Z,31.11
2022-08-28T09:13:24.665Z,30.54
2022-08-28T09:18:33.509Z,30.20
2022-08-28T09:23:36.617Z,30.15
2022-08-28T09:28:41.525Z,30.20
2022-08-28T09:33:51.539Z,30.22
2022-08-28T09:39:13.593Z,30.24
2022-08-28T09:44:16.806Z,30.25
2022-08-28T09:49:27.816Z,30.48
2022-08-28T09:54:39.930Z,30.62
2022-08-28T09:59:42.939Z,30.72
2022-08-28T10:04:55.044Z,30.80
2022-08-28T10:10:49.358Z,30.91
2022-08-28T10:16:35.062Z,31.04
2022-08-28T10:21:40.839Z,31.32
2022-08-28T10:27:04.849Z,31.62
2022-08-28T10:32:35.857Z,31.76
2022-08-28T10:38:01.960Z,31.86
2022-08-28T10:43:05.099Z,31.90
2022-08-28T10:48:27.659Z,31.88
2022-08-28T10:53:55.301Z,31.91
2022-08-28T10:58:59.399Z,31.97
2022-08-28T11:04:08.586Z,31.96
2022-08-28T11:09:48.663Z,31.99
2022-08-28T11:14:51.872Z,32.07
2022-08-28T11:20:20.729Z,32.16
2022-08-28T11:25:32.726Z,32.09
2022-08-28T11:30:36.569Z,32.13
2022-08-28T11:35:48.491Z,32.19
2022-08-28T11:40:57.003Z,32.12
2022-08-28T11:46:06.669Z,32.17
2022-08-28T11:51:27.730Z,32.29
2022-08-28T11:57:03.245Z,32.42
2022-08-28T12:02:37.219Z,32.58
2022-08-28T12:07:46.024Z,32.70
2022-08-28T12:12:50.353Z,32.75
2022-08-28T12:17:55.101Z,32.80
2022-08-28T12:23:02.511Z,32.76
2022-08-28T12:28:29.177Z,32.75
2022-08-28T12:33:47.642Z,32.78
2022-08-28T12:38:53.969Z,32.86
2022-08-28T12:43:59.906Z,32.67
2022-08-28T12:49:05.997Z,32.49
2022-08-28T12:54:17.074Z,32.58
2022-08-28T12:59:46.840Z,32.42
2022-08-28T13:05:03.875Z,32.24
2022-08-28T13:10:28.661Z,32.13
2022-08-28T13:15:48.774Z,31.86
2022-08-28T13:20:51.777Z,31.58
2022-08-28T13:26:04.165Z,31.38
2022-08-28T13:31:20.932Z,31.23
2022-08-28T13:36:26.515Z,31.22
2022-08-28T13:41:30.005Z,31.38
2022-08-28T13:46:33.414Z,31.69
2022-08-28T13:51:39.443Z,31.73
2022-08-28T13:56:42.827Z,31.68
2022-08-28T14:02:05.547Z,31.56
2022-08-28T14:07:08.807Z,31.34
2022-08-28T14:12:12.632Z,31.08
2022-08-28T14:17:16.154Z,30.78
2022-08-28T14:22:19.156Z,30.55
2022-08-28T14:27:22.171Z,30.44
2022-08-28T14:32:26.504Z,30.33
2022-08-28T14:37:31.975Z,30.26
2022-08-28T14:42:35.073Z,30.11
2022-08-28T14:47:39.515Z,29.89
2022-08-28T14:52:43.135Z,29.69
2022-08-28T14:57:48.922Z,29.48
2022-08-28T15:02:59.876Z,29.34
2022-08-28T15:08:10.768Z,29.25
2022-08-28T15:13:15.305Z,29.24
2022-08-28T15:18:18.451Z,29.32
2022-08-28T15:23:21.449Z,29.39
2022-08-28T15:28:24.557Z,29.51
2022-08-28T15:33:28.180Z,29.59
2022-08-28T15:38:54.473Z,29.54
2022-08-28T15:44:02.323Z,29.43
2022-08-28T15:49:07.744Z,29.28
2022-08-28T15:54:12.770Z,29.09
2022-08-28T15:59:15.881Z,28.90
2022-08-28T16:04:19.087Z,28.66
2022-08-28T16:09:22.327Z,28.24
2022-08-28T16:14:25.420Z,27.61
2022-08-28T16:19:31.387Z,26.96
2022-08-28T16:24:34.610Z,26.28
2022-08-28T16:29:38.070Z,25.67
2022-08-28T16:34:44.631Z,26.02
2022-08-28T16:39:48.121Z,26.51
2022-08-28T16:44:56.354Z,26.79
2022-08-28T16:50:01.934Z,26.52
2022-08-28T16:55:07.946Z,26.31
2022-08-28T17:00:13.537Z,25.52
2022-08-28T17:05:19.749Z,25.21
2022-08-28T17:10:25.648Z,25.07
2022-08-28T17:15:29.037Z,25.20
2022-08-28T17:20:51.087Z,25.10
2022-08-28T17:25:54.097Z,24.92
2022-08-28T17:30:59.368Z,25.10
2022-08-28T17:36:03.221Z,25.19
2022-08-28T17:41:07.120Z,24.98
2022-08-28T17:46:10.666Z,25.29
2022-08-28T17:51:13.744Z,25.71
2022-08-28T17:56:22.172Z,26.06
2022-08-28T18:01:40.370Z,26.27
2022-08-28T18:06:46.477Z,26.10
2022-08-28T18:11:49.618Z,24.84
2022-08-28T18:16:52.997Z,24.69
2022-08-28T18:21:56.145Z,24.67
2022-08-28T18:26:59.560Z,24.51
2022-08-28T18:32:07.751Z,24.61
2022-08-28T18:37:11.513Z,24.55
2022-08-28T18:42:16.789Z,24.48
2022-08-28T18:47:19.826Z,24.57
2022-08-28T18:52:22.886Z,24.65
2022-08-28T18:57:26.203Z,24.63
2022-08-28T19:02:29.637Z,24.53
2022-08-28T19:07:32.932Z,24.66
2022-08-28T19:12:35.946Z,24.40
2022-08-28T19:17:39.985Z,24.36
2022-08-28T19:22:43.927Z,24.32
2022-08-28T19:27:49.287Z,24.12
2022-08-28T19:33:00.358Z,24.35
2022-08-28T19:38:03.564Z,24.28
2022-08-28T19:43:06.774Z,24.10
2022-08-28T19:48:15.820Z,24.19
2022-08-28T19:53:18.937Z,24.50
2022-08-28T19:58:21.941Z,24.31
2022-08-28T20:03:25.785Z,24.07
2022-08-28T20:08:29.727Z,24.04
2022-08-28T20:13:33.552Z,24.37
2022-08-28T20:18:36.527Z,24.23
2022-08-28T20:23:39.845Z,24.58
2022-08-28T20:28:43.008Z,24.56
2022-08-28T20:33:47.593Z,24.80
2022-08-28T20:38:52.850Z,24.88
2022-08-28T20:43:57.703Z,24.97
2022-08-28T20:49:01.781Z,24.93
2022-08-28T20:54:04.841Z,24.94
2022-08-28T20:59:08.675Z,24.72
2022-08-28T21:04:11.672Z,24.65
2022-08-28T21:09:15.914Z,24.84
2022-08-28T21:14:19.225Z,25.30
2022-08-28T21:19:22.227Z,25.68
2022-08-28T21:24:25.540Z,25.87
2022-08-28T21:29:29.163Z,26.00
2022-08-28T21:34:32.169Z,26.11
2022-08-28T21:39:38.250Z,26.15
2022-08-28T21:44:41.458Z,26.03
2022-08-28T21:49:56.831Z,25.92
2022-08-28T21:55:07.986Z,25.88
2022-08-28T22:00:20.919Z,25.79
2022-08-28T22:05:24.206Z,25.71
2022-08-28T22:10:27.621Z,25.37
2022-08-28T22:15:31.557Z,24.80
2022-08-28T22:20:36.888Z,24.47
2022-08-28T22:25:43.094Z,24.14
2022-08-28T22:30:46.199Z,23.39
2022-08-28T22:35:50.599Z,22.75
2022-08-28T22:40:53.750Z,22.98
2022-08-28T22:45:56.915Z,22.56
2022-08-28T22:51:08.758Z,22.26
2022-08-28T22:56:12.751Z,22.77
2022-08-28T23:01:19.605Z,22.69
2022-08-28T23:06:22.713Z,22.63
2022-08-28T23:11:26.061Z,22.63
2022-08-28T23:16:29.088Z,22.61
2022-08-28T23:21:32.444Z,22.84
2022-08-28T23:26:35.704Z,23.13
2022-08-28T23:31:39.671Z,23.46
2022-08-28T23:36:43.435Z,23.64
2022-08-28T23:41:46.833Z,23.89
2022-08-28T23:46:49.831Z,23.96
2022-08-28T23:51:52.841Z,24.03
2022-08-28T23:56:55.846Z,24.20
